Spirit of St Louis Airport
KSUS : now visible

Airfield :











YOU CAN JOIN US ON...

 
LOGIN :

Register | Disclaimer

   EN    FR    IT 

 









Legend :    VFR   Marginal VFR   IFR   Intensive IFR   Very Intensive IFR
Visi :
Ceiling :
>= 8 km
>= 3000ft
5 to 8 km
1000 to 3000 ft
1500m to 5 km
500 to 1000 ft
800 to 1500m
200 to 500 ft
< 800m
< 200 ft
Symbols :   Thunderstorms  Fog  Heavy snow  Heavy precipitations  Wind > 20 kt







- Airport Elevation : 463 ft


KSUS - Spirit of St Louis

CURRENT METAR :
  • 191354Z 00000KT 10SM CLR M03/M06 A3057 RMK AO2 SLP361 T10281061

EXPIRED METARs :
  • 191254Z 09006KT 10SM CLR M04/M07 A3054 RMK AO2 SLP352 T10391067
  • 191154Z 08004KT 10SM CLR M04/M07 A3056 RMK AO2 SLP357 T10391067 11028 21044 58002

TAF KSUS
Valid from the 19 at 12:00 until the 20 at 12:00 UTC


191125Z 1912/2012 08005KT P6SM SCT030 OVC250
FM192300 09010KT 1 1/2SM -SN BR OVC015
FM200700 09008KT 2SM -FZDZ BR OVC007
FM200900 10007KT 2SM -DZ BR OVC004
KZKC FIR / North America



MET'MAP, your aeronautical weather chart ! - Copyright ORBIFLY December 2007 - Disclaimer

ORBIFLY MET'MAP TEAM :

Programming & Development : Alexandra Zaïnal
Concept & Development : Baudouin d'Aumeries
Co-Development & Prog : Marc-Olivier Méhu
Technical & hardware support : Manuel Goepfert

Contact : metmap@orbifly.com




SOURCES & CREDITS :

   NOAA       Earth
Advisory